Portada
METAR-TAF:

METAR-TAF

Aeropuertos :

Lisboa, Portugal

Aeropuerto de Lisboa

latitud: 38-46N, longitud: 009-08W, altitud: 114 m

Observación

El informe se hizo hace 21 minutos, a las 02:30 UTC
Viento 5 kt del norte-noroeste
Temperatura 10°C
Humedad 76%
Presión 1023 hPa
Visibilidad 10 km o más
sin nubes por debajo de 1500 m y sin presencia de cumulonimbus.

METAR: LPPT 180230Z 34005KT CAVOK 10/06 Q1023

Hora: 02:51 (02:51 UTC)

Pronóstico

El informe se hizo hace 3 horas y 51 minutos, a las 23:00 UTC
Pronóstico válido del 18 a las 00 UTC al 19 a las 06 UTC
Viento 7 kt del norte-noroeste
Visibilidad 10 km o más
sin nubes por debajo de 1500 m y sin presencia de cumulonimbus.
Evolucionando progresivamente
del 18 a las 01 UTC al 18 a las 04 UTC
Viento 10 kt del noreste

TAF: LPPT 172300Z 1800/1906 33007KT CAVOK BECMG 1801/1804 04010KT

Observaciones y pronósticos meteorológicos de más de 4000 aeropuertos (mensajes METAR y TAF).

Los puntos amarillos y rojos representan las estaciones disponibles.

Ponga el ratón en el punto deseado para ver el nombre de la estación.

Haga clic para ver las observaciones y los pronósticos meteorológicos.

Para cambiar el mapa : haga clic en los botones verdes con una cruz de color negro para hacer un zoom, en el botón verde con un guión para alejar o en las flechas verdes para mapas adyacentes.


METAR-TAF: